ADDS METAR Data INFO
IDs: Format: Raw Decoded Include TAF

Data at: 2333 UTC 15 Dec 2017

KMHV 152300Z AUTO 17007KT 10SM CLR 18/M13 A3007 RMK A01
KMHV 152240Z AUTO 16007KT 10SM CLR 19/M13 A3008 RMK A01
KMHV 152220Z AUTO 16007KT 10SM CLR 19/M13 A3009 RMK A01
KMHV 152200Z AUTO 15006KT 10SM CLR 19/M13 A3010 RMK A01
KMHV 152140Z AUTO 20005KT 10SM CLR 19/M13 A3011 RMK A01
KMHV 152120Z AUTO 21005KT 10SM CLR 19/M13 A3012 RMK A01
KMHV 152100Z AUTO 16004KT 10SM CLR 18/M12 A3014 RMK A01
KMHV 152040Z AUTO 18006KT 10SM CLR 18/M11 A3016 RMK A01
KMHV 152020Z AUTO 18006KT 10SM CLR 17/M11 A3017 RMK A01
KMHV 152000Z AUTO 17007KT 10SM CLR 16/M12 A3019 RMK A01
KMHV 151940Z AUTO 18005KT 10SM CLR 16/M12 A3021 RMK A01
KMHV 151920Z AUTO 15004KT 10SM CLR 15/M12 A3022 RMK A01
KMHV 151900Z AUTO 00000KT 10SM CLR 14/M12 A3024 RMK A01
KMHV 151840Z AUTO 00000KT 10SM CLR 14/M13 A3025 RMK A01
KMHV 151820Z AUTO 00000KT 10SM CLR 13/M13 A3027 RMK A01
KMHV 151800Z AUTO 00000KT 10SM CLR 12/M13 A3027 RMK A01
KMHV 151740Z AUTO 00000KT 10SM CLR 12/M13 A3028 RMK A01
KMHV 151720Z AUTO 00000KT 10SM CLR 11/M13 A3028 RMK A01
KMHV 151700Z AUTO 00000KT 10SM CLR 10/M13 A3028 RMK A01
KMHV 151640Z AUTO 00000KT 10SM CLR 11/M13 A3027 RMK A01
KMHV 151620Z AUTO 00000KT 10SM CLR 10/M13 A3027 RMK A01
KMHV 151600Z AUTO 00000KT 10SM CLR 07/M14 A3027 RMK A01
KMHV 151540Z AUTO 00000KT 10SM CLR 03/M15 A3027 RMK A01
KMHV 151520Z AUTO 00000KT 10SM CLR 04/M15 A3027 RMK A01
KMHV 151500Z AUTO 32004KT 10SM CLR 03/M15 A3027 RMK A01
KMHV 151440Z AUTO 32008KT 10SM CLR 02/M15 A3026 RMK A01
KMHV 151420Z AUTO 32004KT 10SM CLR 02/M15 A3026 RMK A01
KMHV 151400Z AUTO 29004KT 10SM CLR 02/M15 A3026 RMK A01
KMHV 151340Z AUTO 31006KT 10SM CLR 02/M15 A3026 RMK A01
KMHV 151320Z AUTO 32005KT 10SM CLR 02/M15 A3026 RMK A01
KMHV 151300Z AUTO 31004KT 10SM CLR 01/M15 A3026 RMK A01
KMHV 151240Z AUTO 00000KT 10SM CLR 02/M15 A3026 RMK A01
KMHV 151220Z AUTO 00000KT 10SM CLR 03/M15 A3026 RMK A01
KMHV 151200Z AUTO 31005KT 10SM CLR 03/M15 A3026 RMK A01
KMHV 151140Z AUTO 33008KT 10SM CLR 04/M15 A3027 RMK A01
KMHV 151120Z AUTO 33010KT 10SM CLR 04/M15 A3027 RMK A01
KMHV 151100Z AUTO 34007KT 8SM CLR 04/M15 A3027 RMK A01
KMHV 151040Z AUTO 36004KT 10SM CLR 04/M15 A3028 RMK A01
KMHV 151020Z AUTO 33007KT 10SM CLR 04/M15 A3028 RMK A01
KMHV 151000Z AUTO 32009KT 10SM CLR 05/M14 A3028 RMK A01
KMHV 150940Z AUTO 32010KT 10SM CLR 05/M14 A3028 RMK A01
KMHV 150920Z AUTO 32009KT 9SM CLR 05/M14 A3028 RMK A01
KMHV 150900Z AUTO 31009KT 10SM CLR 05/M14 A3027 RMK A01
KMHV 150840Z AUTO 32008KT 10SM CLR 05/M14 A3027 RMK A01
KMHV 150820Z AUTO 32008KT 10SM CLR 05/M14 A3027 RMK A01
KMHV 150800Z AUTO 32009KT 10SM CLR 05/M14 A3027 RMK A01
KMHV 150740Z AUTO 33011KT 10SM CLR 05/M14 A3027 RMK A01
KMHV 150720Z AUTO 32010KT 10SM CLR 05/M14 A3027 RMK A01
KMHV 150700Z AUTO 32008KT 10SM CLR 05/M14 A3027 RMK A01
KMHV 150640Z AUTO 32009KT 10SM CLR 06/M14 A3027 RMK A01
KMHV 150620Z AUTO 32009KT 10SM CLR 06/M14 A3027 RMK A01
KMHV 150600Z AUTO 32009KT 10SM CLR 06/M14 A3027 RMK A01
KMHV 150540Z AUTO 32007KT 10SM CLR 06/M14 A3027 RMK A01
KMHV 150520Z AUTO 32008KT 10SM CLR 06/M14 A3026 RMK A01
KMHV 150500Z AUTO 32006KT 10SM CLR 06/M14 A3026 RMK A01
KMHV 150440Z AUTO 32006KT 10SM CLR 07/M14 A3025 RMK A01
KMHV 150420Z AUTO 32007KT 10SM CLR 07/M14 A3025 RMK A01
KMHV 150400Z AUTO 31006KT 10SM CLR 08/M14 A3024 RMK A01
KMHV 150340Z AUTO 30004KT 10SM CLR 09/M14 A3024 RMK A01
KMHV 150320Z AUTO 30005KT 10SM CLR 09/M14 A3023 RMK A01
KMHV 150300Z AUTO 27005KT 10SM CLR 10/M14 A3022 RMK A01
KMHV 150240Z AUTO 33006KT 10SM CLR 09/M14 A3022 RMK A01
KMHV 150220Z AUTO VRB03KT 10SM CLR 11/M14 A3022 RMK A01
KMHV 150200Z AUTO 00000KT 10SM CLR 11/M14 A3021 RMK A01
KMHV 150140Z AUTO 34006KT 10SM CLR 11/M14 A3021 RMK A01
KMHV 150120Z AUTO 34006KT 10SM CLR 11/M14 A3020 RMK A01
KMHV 150100Z AUTO 34007KT 10SM CLR 13/M14 A3021 RMK A01
KMHV 150040Z AUTO 34006KT 10SM CLR 16/M13 A3020 RMK A01
KMHV 150020Z AUTO 02003KT 10SM CLR 18/M12 A3019 RMK A01
KMHV 150000Z AUTO 04003KT 10SM CLR 19/M12 A3019 RMK A01
KMHV 142340Z AUTO 05008KT 10SM CLR 20/M12 A3019 RMK A01
KMHV 142320Z AUTO 08009KT 10SM CLR 20/M12 A3018 RMK A01
KMHV 142300Z AUTO 07010KT 10SM CLR 20/M12 A3018 RMK A01
KMHV 142240Z AUTO 09010KT 10SM CLR 21/M12 A3017 RMK A01
KMHV 142220Z AUTO 09011KT 10SM CLR 21/M12 A3017 RMK A01
KMHV 142200Z AUTO 08011KT 9SM CLR 21/M13 A3017 RMK A01
KMHV 142140Z AUTO 07009KT 10SM CLR 20/M12 A3017 RMK A01
KMHV 142120Z AUTO 08008KT 10SM CLR 20/M13 A3017 RMK A01
KMHV 142100Z AUTO 07009KT 10SM CLR 20/M13 A3017 RMK A01
KMHV 142040Z AUTO 09006G11KT 10SM CLR 19/M14 A3018 RMK A01
KMHV 142020Z AUTO 09006KT 10SM CLR 19/M14 A3019 RMK A01
KMHV 142000Z AUTO 10005KT 10SM CLR 18/M15 A3020 RMK A01
KMHV 141940Z AUTO 00000KT 10SM CLR 17/M16 A3021 RMK A01
KMHV 141920Z AUTO 00000KT 10SM CLR 16/M17 A3021 RMK A01
KMHV 141900Z AUTO 00000KT 10SM CLR 16/M18 A3022 RMK A01
KMHV 141840Z AUTO 00000KT 10SM CLR 15/M18 A3022 RMK A01
KMHV 141820Z AUTO 02004KT 10SM CLR 15/M18 A3022 RMK A01
KMHV 141800Z AUTO 09006KT 10SM CLR 14/M19 A3022 RMK A01
KMHV 141740Z AUTO 18007KT 10SM CLR 14/M19 A3022 RMK A01
KMHV 141720Z AUTO 08008KT 10SM CLR 15/M18 A3022 RMK A01
KMHV 141700Z AUTO 06007KT 10SM CLR 13/M19 A3020 RMK A01
KMHV 141640Z AUTO 35006KT 9SM CLR 10/M20 A3020 RMK A01
KMHV 141620Z AUTO 29004KT 10SM CLR 08/M21 A3019 RMK A01
KMHV 141600Z AUTO 21004KT 8SM CLR 08/M21 A3019 RMK A01
KMHV 141540Z AUTO 05005KT 9SM CLR 07/M22 A3018 RMK A01
KMHV 141520Z AUTO 32007KT 10SM CLR 06/M22 A3018 RMK A01
KMHV 141500Z AUTO 33006KT 10SM CLR 03/M23 A3017 RMK A01
KMHV 141440Z AUTO 33004KT 10SM CLR 04/M22 A3017 RMK A01
KMHV 141420Z AUTO 00000KT 10SM CLR 02/M23 A3016 RMK A01
KMHV 141400Z AUTO 00000KT 9SM CLR 03/M23 A3014 RMK A01
KMHV 141340Z AUTO 34004KT 10SM CLR 03/M24 A3013 RMK A01
KMHV 141320Z AUTO 33005KT 10SM CLR 04/M23 A3012 RMK A01
KMHV 141300Z AUTO 36003KT 10SM CLR 05/M23 A3011 RMK A01
KMHV 141240Z AUTO 09003KT 10SM CLR 04/M23 A3010 RMK A01
KMHV 141220Z AUTO 00000KT 10SM CLR 04/M23 A3008 RMK A01
KMHV 141200Z AUTO 34003KT 10SM CLR 05/M23 A3008 RMK A01
KMHV 141140Z AUTO 00000KT 10SM CLR 07/M22 A3008 RMK A01